Time;durP1;ratioP1;P1;durP2;ratioP2;P2;SDS_P1;SDS_P2;PMS_P1;PMS_P2;Temp;Humidity;BMP_temperature;BMP_pressure;BME280_temperature;BME280_humidity;BME280_pressure;Samples;Min_cycle;Max_cycle;Signal;HPM_P1;HPM_P2
2022/12/01 00:00:15;;;;;;;0.10;0.10;;;6.40;99.90;;;;;;5040443;28;20065;-74
2022/12/01 00:02:40;;;;;;;0.10;0.10;;;6.40;99.90;;;;;;5026007;28;20041;-74
2022/12/01 00:05:06;;;;;;;0.20;0.20;;;6.40;99.90;;;;;;5029094;28;20037;-74
2022/12/01 00:07:32;;;;;;;0.10;0.10;;;6.50;99.90;;;;;;5035079;28;20586;-74
2022/12/01 00:12:44;;;;;;;0.10;0.10;;;6.40;99.90;;;;;;5044906;28;20054;-74
2022/12/01 00:15:11;;;;;;;0.10;0.10;;;6.40;99.90;;;;;;5031004;28;20567;-74
2022/12/01 00:17:37;;;;;;;0.10;0.10;;;6.40;99.90;;;;;;5030176;28;20382;-74
2022/12/01 00:20:06;;;;;;;0.10;0.10;;;6.40;99.90;;;;;;5016826;28;20391;-74
2022/12/01 00:22:32;;;;;;;0.10;0.10;;;6.40;99.90;;;;;;5027443;28;20045;-74
2022/12/01 00:24:58;;;;;;;0.10;0.10;;;6.40;99.90;;;;;;5029030;28;20087;-75
2022/12/01 00:27:23;;;;;;;0.10;0.10;;;6.40;99.90;;;;;;5023061;28;20044;-75
2022/12/01 00:29:49;;;;;;;0.20;0.20;;;6.40;99.90;;;;;;5031379;28;20048;-75
2022/12/01 00:32:14;;;;;;;0.10;0.10;;;6.40;99.90;;;;;;5028122;28;20053;-74
2022/12/01 00:34:42;;;;;;;0.10;0.10;;;7.00;99.90;;;;;;5032323;28;20049;-75
2022/12/01 00:37:08;;;;;;;0.10;0.10;;;6.30;99.90;;;;;;5030587;28;20045;-74
2022/12/01 00:39:34;;;;;;;0.15;0.15;;;6.90;99.90;;;;;;5030761;28;20045;-74
2022/12/01 00:41:59;;;;;;;0.10;0.10;;;6.40;99.90;;;;;;5028914;28;20045;-75
2022/12/01 00:44:25;;;;;;;0.10;0.10;;;7.00;99.90;;;;;;5029953;28;20053;-74
2022/12/01 00:46:51;;;;;;;0.10;0.10;;;6.40;99.90;;;;;;5027816;28;20129;-75
2022/12/01 00:49:16;;;;;;;0.17;0.17;;;6.40;99.90;;;;;;5031720;28;20124;-74
2022/12/01 00:51:42;;;;;;;0.10;0.10;;;6.40;99.90;;;;;;5030339;28;20124;-74
2022/12/01 00:54:08;;;;;;;0.10;0.10;;;6.30;99.90;;;;;;5026781;28;20041;-74
2022/12/01 00:56:33;;;;;;;0.10;0.10;;;7.00;99.90;;;;;;5030050;28;20483;-75
2022/12/01 00:58:59;;;;;;;0.20;0.20;;;7.20;99.90;;;;;;5030785;28;20501;-75
2022/12/01 01:01:24;;;;;;;0.20;0.20;;;6.40;99.90;;;;;;5027991;28;20076;-75
2022/12/01 01:03:50;;;;;;;0.10;0.10;;;6.80;99.90;;;;;;5029904;28;20060;-75
2022/12/01 01:06:16;;;;;;;0.10;0.10;;;6.40;99.90;;;;;;5030905;28;20049;-75
2022/12/01 01:08:41;;;;;;;0.10;0.10;;;6.30;99.90;;;;;;5031186;28;20049;-75
2022/12/01 01:11:08;;;;;;;0.10;0.10;;;6.30;99.90;;;;;;5016414;28;20041;-74
2022/12/01 01:13:35;;;;;;;0.10;0.10;;;6.30;99.90;;;;;;5008700;28;20050;-74
2022/12/01 01:16:07;;;;;;;0.10;0.10;;;6.30;99.90;;;;;;5008947;28;20038;-74
2022/12/01 01:18:33;;;;;;;0.10;0.10;;;6.30;99.90;;;;;;5006292;28;20049;-74
2022/12/01 01:21:01;;;;;;;0.10;0.10;;;6.30;99.90;;;;;;5000507;28;20085;-74
2022/12/01 01:23:27;;;;;;;0.10;0.10;;;6.30;99.90;;;;;;5006514;28;20052;-74
2022/12/01 01:25:53;;;;;;;0.13;0.13;;;7.00;99.90;;;;;;4987882;28;20382;-74
2022/12/01 01:28:18;;;;;;;0.10;0.10;;;6.30;99.90;;;;;;5008805;28;20433;-74
2022/12/01 01:30:45;;;;;;;0.10;0.10;;;6.30;99.90;;;;;;5010826;28;20038;-74
2022/12/01 01:33:10;;;;;;;0.10;0.10;;;6.30;99.90;;;;;;5006327;28;20046;-74
2022/12/01 01:35:36;;;;;;;0.10;0.10;;;6.30;99.90;;;;;;5010875;28;20038;-74
2022/12/01 01:38:02;;;;;;;0.10;0.10;;;6.30;99.90;;;;;;5005819;28;20037;-74
2022/12/01 01:40:27;;;;;;;0.10;0.10;;;6.30;99.90;;;;;;4991018;28;20193;-74
2022/12/01 01:42:53;;;;;;;0.20;0.20;;;6.30;99.90;;;;;;4999117;28;20046;-75
2022/12/01 01:45:27;;;;;;;0.20;0.20;;;6.30;99.90;;;;;;4988904;28;20042;-75
2022/12/01 01:47:56;;;;;;;0.13;0.13;;;6.30;99.90;;;;;;5002730;28;20046;-74
2022/12/01 01:50:25;;;;;;;0.20;0.20;;;6.30;99.90;;;;;;5009633;28;20088;-74
2022/12/01 01:52:58;;;;;;;0.20;0.20;;;6.30;99.90;;;;;;5010833;28;20046;-74
2022/12/01 01:55:24;;;;;;;0.10;0.10;;;6.30;99.90;;;;;;4991921;28;20080;-75
2022/12/01 01:57:50;;;;;;;0.10;0.10;;;6.30;99.90;;;;;;5006382;28;20064;-74
2022/12/01 02:00:18;;;;;;;0.10;0.10;;;6.30;99.90;;;;;;5009180;28;20499;-74
2022/12/01 02:02:46;;;;;;;0.20;0.20;;;6.30;99.90;;;;;;5007126;28;20033;-75
2022/12/01 02:05:27;;;;;;;0.15;0.15;;;6.30;99.90;;;;;;4993121;28;20046;-75
2022/12/01 02:07:55;;;;;;;0.10;0.10;;;6.30;99.90;;;;;;4990809;28;20065;-74
2022/12/01 02:10:26;;;;;;;0.17;0.17;;;6.40;99.90;;;;;;5028546;28;20084;-74
2022/12/01 02:13:21;;;;;;;0.10;0.10;;;6.40;99.90;;;;;;5025916;28;20061;-75
2022/12/01 02:16:13;;;;;;;0.10;0.10;;;6.40;99.90;;;;;;5014709;28;20071;-75
2022/12/01 02:19:33;;;;;;;0.20;0.20;;;6.40;99.90;;;;;;5020594;28;20512;-74
2022/12/01 02:22:21;;;;;;;0.10;0.10;;;6.40;99.90;;;;;;4964277;28;20053;-75
2022/12/01 02:25:07;;;;;;;0.10;0.10;;;6.30;99.90;;;;;;5021905;28;20045;-76
2022/12/01 02:27:54;;;;;;;0.10;0.10;;;6.30;99.90;;;;;;5012512;28;20030;-75
2022/12/01 02:30:44;;;;;;;0.10;0.10;;;6.30;99.90;;;;;;5020895;28;20567;-75
2022/12/01 02:33:31;;;;;;;0.20;0.20;;;6.30;99.90;;;;;;5026690;28;20092;-74
2022/12/01 02:36:15;;;;;;;0.20;0.20;;;6.30;99.90;;;;;;5029203;28;20041;-75
2022/12/01 02:38:53;;;;;;;0.10;0.10;;;6.30;99.90;;;;;;5028024;28;20049;-75
2022/12/01 02:41:33;;;;;;;0.10;0.10;;;6.40;99.90;;;;;;5027719;28;20136;-74
2022/12/01 02:44:10;;;;;;;0.10;0.10;;;6.40;99.90;;;;;;5024845;28;20041;-74
2022/12/01 02:46:49;;;;;;;0.10;0.10;;;6.40;99.90;;;;;;5015932;28;20048;-74
2022/12/01 02:49:18;;;;;;;0.10;0.10;;;6.40;99.90;;;;;;5026072;28;20041;-74
2022/12/01 02:51:51;;;;;;;0.10;0.10;;;6.30;99.90;;;;;;5026853;28;20541;-75
2022/12/01 02:54:18;;;;;;;0.10;0.10;;;7.10;99.90;;;;;;5032518;28;20048;-75
2022/12/01 02:56:44;;;;;;;0.20;0.20;;;6.30;99.90;;;;;;5037173;28;20041;-74
2022/12/01 02:59:11;;;;;;;0.20;0.20;;;6.30;99.90;;;;;;5027341;28;20041;-75
2022/12/01 03:01:44;;;;;;;0.10;0.10;;;6.30;99.90;;;;;;5020333;28;20704;-74
2022/12/01 03:04:40;;;;;;;0.10;0.10;;;6.40;99.90;;;;;;5042680;28;20053;-74
2022/12/01 03:07:25;;;;;;;0.20;0.20;;;6.40;99.90;;;;;;5024169;28;20055;-75
2022/12/01 03:10:18;;;;;;;0.10;0.10;;;6.50;99.90;;;;;;5024497;28;20054;-74
2022/12/01 03:12:58;;;;;;;0.10;0.10;;;6.40;99.90;;;;;;5024601;28;20505;-74
2022/12/01 03:16:02;;;;;;;0.10;0.10;;;6.40;99.90;;;;;;5023463;28;20041;-74
2022/12/01 03:18:45;;;;;;;0.10;0.10;;;6.40;99.90;;;;;;5042498;28;20053;-75
2022/12/01 03:21:23;;;;;;;0.10;0.10;;;6.40;99.90;;;;;;5027495;28;20045;-74
2022/12/01 03:24:04;;;;;;;0.45;0.43;;;6.40;99.90;;;;;;5032611;28;20048;-74
2022/12/01 03:26:34;;;;;;;0.10;0.10;;;6.50;99.90;;;;;;5028662;28;20061;-74
2022/12/01 03:29:07;;;;;;;0.10;0.10;;;6.40;99.90;;;;;;5026779;28;20041;-74
2022/12/01 03:31:42;;;;;;;0.10;0.10;;;6.80;99.90;;;;;;5029753;28;20046;-75
2022/12/01 03:34:14;;;;;;;0.10;0.10;;;6.40;99.90;;;;;;5046452;28;20046;-74
2022/12/01 03:36:51;;;;;;;;;;;6.40;99.90;;;;;;5032576;28;20084;-74
2022/12/01 03:39:22;;;;;;;0.10;0.10;;;6.40;99.90;;;;;;5027864;28;20011;-75
2022/12/01 03:41:58;;;;;;;0.10;0.10;;;6.40;99.90;;;;;;5032910;28;20072;-74
2022/12/01 03:44:30;;;;;;;0.10;0.10;;;6.40;99.90;;;;;;5032287;28;20050;-74
2022/12/01 03:47:04;;;;;;;0.20;0.20;;;6.30;99.90;;;;;;5029173;28;20061;-75
2022/12/01 03:49:30;;;;;;;0.22;0.22;;;6.30;99.90;;;;;;5040407;28;20046;-74
2022/12/01 03:52:16;;;;;;;0.10;0.10;;;6.30;99.90;;;;;;5033522;28;20045;-75
2022/12/01 03:55:03;;;;;;;0.10;0.10;;;6.30;99.90;;;;;;5019567;28;20045;-74
2022/12/01 03:57:35;;;;;;;0.20;0.20;;;6.30;99.90;;;;;;5027918;28;20057;-74
2022/12/01 04:00:00;;;;;;;;;;;6.30;99.90;;;;;;5032046;28;20515;-75
2022/12/01 04:02:27;;;;;;;0.10;0.10;;;6.30;99.90;;;;;;5045061;28;19916;-75
2022/12/01 04:04:53;;;;;;;0.20;0.20;;;6.30;99.90;;;;;;5030594;28;20485;-75
2022/12/01 04:07:20;;;;;;;0.10;0.10;;;6.30;99.90;;;;;;5028835;28;20099;-74
2022/12/01 04:09:46;;;;;;;0.10;0.10;;;6.30;99.90;;;;;;5035782;28;20048;-74
2022/12/01 04:12:28;;;;;;;0.20;0.20;;;6.20;99.90;;;;;;5030745;28;20057;-75
2022/12/01 04:14:57;;;;;;;0.10;0.10;;;6.30;99.90;;;;;;5030441;28;20148;-75
2022/12/01 04:17:24;;;;;;;0.20;0.20;;;6.30;99.90;;;;;;5027382;28;20045;-75
2022/12/01 04:19:50;;;;;;;0.15;0.15;;;6.30;99.90;;;;;;5028867;28;20050;-75
2022/12/01 04:22:15;;;;;;;0.10;0.10;;;6.30;99.90;;;;;;5028099;28;20049;-74
2022/12/01 04:24:41;;;;;;;0.10;0.10;;;6.30;99.90;;;;;;5024593;28;20068;-75
2022/12/01 04:27:07;;;;;;;0.10;0.10;;;6.20;99.90;;;;;;5030034;28;20041;-74
2022/12/01 04:29:32;;;;;;;0.20;0.20;;;6.30;99.90;;;;;;5027284;28;20042;-75
2022/12/01 04:31:58;;;;;;;0.10;0.10;;;6.30;99.90;;;;;;5025492;28;20473;-74
2022/12/01 04:34:24;;;;;;;0.35;0.35;;;6.30;99.90;;;;;;5028275;28;20115;-74
2022/12/01 04:36:49;;;;;;;0.10;0.10;;;6.30;99.90;;;;;;5028648;28;20280;-75
2022/12/01 04:39:15;;;;;;;0.20;0.20;;;6.20;99.90;;;;;;5028176;28;20049;-75
2022/12/01 04:41:41;;;;;;;0.20;0.20;;;6.30;99.90;;;;;;5028411;28;20536;-75
2022/12/01 04:44:09;;;;;;;0.10;0.10;;;6.20;99.90;;;;;;5025780;28;20045;-74
2022/12/01 04:46:35;;;;;;;0.20;0.20;;;6.30;99.90;;;;;;5024775;28;20033;-75
2022/12/01 04:49:00;;;;;;;0.20;0.20;;;6.30;99.90;;;;;;5030241;28;20091;-74
2022/12/01 04:51:26;;;;;;;0.10;0.10;;;6.20;99.90;;;;;;5029115;28;20052;-74
2022/12/01 04:53:52;;;;;;;0.20;0.20;;;6.30;99.90;;;;;;5030504;28;20738;-74
2022/12/01 04:56:18;;;;;;;0.10;0.10;;;6.20;99.90;;;;;;5029141;28;20081;-75
2022/12/01 04:58:43;;;;;;;0.10;0.10;;;6.30;99.90;;;;;;5044728;28;20057;-75
2022/12/01 05:01:12;;;;;;;0.10;0.10;;;6.30;99.90;;;;;;5021000;28;20053;-74
2022/12/01 05:03:39;;;;;;;0.10;0.10;;;6.20;99.90;;;;;;5026447;28;20072;-74
2022/12/01 05:06:09;;;;;;;0.10;0.10;;;6.20;99.90;;;;;;5030490;28;20537;-75
2022/12/01 05:08:34;;;;;;;0.10;0.10;;;6.20;99.90;;;;;;5030332;28;20037;-75
2022/12/01 05:11:01;;;;;;;0.20;0.20;;;6.10;99.90;;;;;;5012672;28;20064;-74
2022/12/01 05:13:27;;;;;;;0.10;0.10;;;6.10;99.90;;;;;;5042790;28;20050;-75
2022/12/01 05:15:53;;;;;;;0.20;0.20;;;6.10;99.90;;;;;;5028149;28;20067;-75
2022/12/01 05:18:18;;;;;;;0.20;0.20;;;6.00;99.90;;;;;;5044376;28;20064;-75
2022/12/01 05:20:56;;;;;;;0.20;0.20;;;5.90;99.90;;;;;;5044582;28;20073;-75
2022/12/01 05:23:32;;;;;;;0.20;0.20;;;5.80;99.90;;;;;;5031154;28;20107;-75
2022/12/01 05:25:58;;;;;;;0.10;0.10;;;5.80;99.90;;;;;;5035788;28;20564;-75
2022/12/01 05:28:25;;;;;;;0.20;0.20;;;5.80;99.90;;;;;;5025608;28;20073;-75
2022/12/01 05:30:52;;;;;;;0.20;0.20;;;5.70;99.90;;;;;;5033186;28;20045;-74
2022/12/01 05:33:19;;;;;;;0.17;0.17;;;5.70;99.90;;;;;;5026469;28;20601;-75
2022/12/01 05:35:44;;;;;;;0.10;0.10;;;5.60;99.90;;;;;;5027639;28;20046;-75
2022/12/01 05:38:10;;;;;;;0.10;0.10;;;5.60;99.90;;;;;;5032925;28;20043;-75
2022/12/01 05:40:36;;;;;;;0.10;0.10;;;5.50;99.90;;;;;;5028383;28;20068;-75
2022/12/01 05:43:02;;;;;;;0.13;0.13;;;5.50;99.90;;;;;;5043791;28;20041;-75
2022/12/01 05:45:28;;;;;;;0.10;0.10;;;5.40;99.90;;;;;;5020149;28;20037;-75
2022/12/01 05:47:58;;;;;;;0.20;0.20;;;5.30;99.90;;;;;;5026085;28;20099;-75
2022/12/01 05:50:25;;;;;;;0.10;0.10;;;5.30;99.90;;;;;;5028699;28;20041;-74
2022/12/01 05:52:51;;;;;;;0.20;0.20;;;5.20;99.90;;;;;;5028941;28;20033;-75
2022/12/01 05:55:16;;;;;;;0.20;0.20;;;5.10;99.90;;;;;;5029691;28;20099;-74
2022/12/01 05:57:42;;;;;;;0.10;0.10;;;5.30;99.90;;;;;;5027787;28;20052;-75
2022/12/01 06:00:09;;;;;;;0.20;0.20;;;5.10;99.90;;;;;;5026711;28;20121;-74
2022/12/01 06:02:34;;;;;;;0.20;0.20;;;5.00;99.90;;;;;;5023993;28;20084;-74
2022/12/01 06:05:00;;;;;;;0.10;0.10;;;5.00;99.90;;;;;;5024616;28;20041;-74
2022/12/01 06:07:26;;;;;;;0.20;0.20;;;5.00;99.90;;;;;;5026160;28;20037;-74
2022/12/01 06:09:52;;;;;;;0.10;0.10;;;4.90;99.90;;;;;;5024475;28;20045;-74
2022/12/01 06:12:18;;;;;;;0.20;0.20;;;4.90;99.90;;;;;;5025986;28;20219;-74
2022/12/01 06:14:44;;;;;;;0.10;0.10;;;4.90;99.90;;;;;;5025033;28;20042;-74
2022/12/01 06:17:10;;;;;;;0.20;0.20;;;4.90;99.90;;;;;;5022077;28;20060;-74
2022/12/01 06:19:36;;;;;;;0.10;0.10;;;5.00;99.90;;;;;;5027075;28;20037;-74
2022/12/01 06:22:02;;;;;;;0.20;0.20;;;5.00;99.90;;;;;;5029044;28;20098;-74
2022/12/01 06:24:28;;;;;;;0.10;0.10;;;5.00;99.90;;;;;;5027279;28;20034;-74
2022/12/01 06:26:54;;;;;;;0.10;0.10;;;5.00;99.90;;;;;;5019318;28;20048;-74
2022/12/01 06:29:20;;;;;;;0.20;0.20;;;5.00;99.90;;;;;;5026157;28;20136;-73
2022/12/01 06:31:45;;;;;;;0.10;0.10;;;5.00;99.90;;;;;;5026395;28;20095;-74
2022/12/01 06:34:11;;;;;;;0.20;0.20;;;5.00;99.90;;;;;;5028971;28;20041;-74
2022/12/01 06:36:37;;;;;;;0.10;0.10;;;4.90;99.90;;;;;;5028013;28;20123;-74
2022/12/01 06:39:08;;;;;;;0.20;0.20;;;5.20;99.90;;;;;;5026955;28;20053;-74
2022/12/01 06:41:35;;;;;;;0.20;0.20;;;4.90;99.90;;;;;;5025022;28;20052;-74
2022/12/01 06:44:01;;;;;;;0.20;0.20;;;4.80;99.90;;;;;;5036635;28;20044;-75
2022/12/01 06:46:26;;;;;;;0.20;0.20;;;4.80;99.90;;;;;;5029346;28;20755;-75
2022/12/01 06:48:52;;;;;;;0.10;0.10;;;4.70;99.90;;;;;;5023594;28;20142;-75
2022/12/01 06:51:17;;;;;;;0.10;0.10;;;4.70;99.90;;;;;;5027624;28;20408;-76
2022/12/01 06:53:43;;;;;;;0.20;0.20;;;4.70;99.90;;;;;;5030136;28;20397;-75
2022/12/01 06:56:09;;;;;;;0.20;0.20;;;4.70;99.90;;;;;;5024333;28;20034;-75
2022/12/01 06:58:34;;;;;;;0.10;0.10;;;4.70;99.90;;;;;;5024539;28;20127;-76
2022/12/01 07:01:10;;;;;;;0.20;0.20;;;4.70;99.90;;;;;;5027742;28;20052;-75
2022/12/01 07:03:36;;;;;;;0.20;0.20;;;4.60;99.90;;;;;;5022888;28;20404;-75
2022/12/01 07:06:02;;;;;;;0.20;0.20;;;4.60;99.90;;;;;;5022892;28;20120;-75
2022/12/01 07:08:29;;;;;;;0.20;0.20;;;4.50;99.90;;;;;;5025779;28;20091;-75
2022/12/01 07:11:06;;;;;;;0.10;0.10;;;4.50;99.90;;;;;;5027360;28;20095;-75
2022/12/01 07:13:32;;;;;;;0.20;0.20;;;4.40;99.90;;;;;;5040860;28;20041;-75
2022/12/01 07:15:58;;;;;;;0.20;0.20;;;4.40;99.90;;;;;;5027591;28;20527;-75
2022/12/01 07:18:23;;;;;;;0.15;0.15;;;4.30;99.90;;;;;;5020163;28;20052;-75
2022/12/01 07:20:49;;;;;;;0.10;0.10;;;4.30;99.90;;;;;;5026343;28;20046;-75
2022/12/01 07:23:15;;;;;;;0.20;0.20;;;4.20;99.90;;;;;;5026689;28;20099;-76
2022/12/01 07:25:40;;;;;;;0.20;0.20;;;4.20;99.90;;;;;;5021984;28;20038;-75
2022/12/01 07:28:06;;;;;;;0.20;0.20;;;4.20;99.90;;;;;;5017566;28;20127;-75
2022/12/01 07:30:32;;;;;;;0.20;0.20;;;4.10;99.90;;;;;;5027692;28;20048;-75
2022/12/01 07:32:58;;;;;;;0.10;0.10;;;4.10;99.90;;;;;;5023790;28;20049;-75
2022/12/01 07:35:24;;;;;;;0.10;0.10;;;4.00;99.90;;;;;;5027749;28;20488;-75
2022/12/01 07:37:54;;;;;;;0.10;0.10;;;3.90;99.90;;;;;;5025042;28;20128;-75
2022/12/01 07:40:20;;;;;;;0.20;0.20;;;3.90;99.90;;;;;;5022543;28;20071;-75
2022/12/01 07:42:46;;;;;;;0.20;0.20;;;3.90;99.90;;;;;;5040797;28;20559;-74
2022/12/01 07:45:11;;;;;;;0.20;0.20;;;3.90;99.90;;;;;;5036999;28;20516;-75
2022/12/01 07:47:37;;;;;;;0.20;0.20;;;3.90;99.90;;;;;;5023942;28;20045;-75
2022/12/01 07:50:03;;;;;;;0.20;0.20;;;3.90;99.90;;;;;;5025734;28;20366;-76
2022/12/01 07:52:29;;;;;;;0.20;0.20;;;3.90;99.90;;;;;;5027354;28;20065;-74
2022/12/01 07:54:54;;;;;;;0.20;0.20;;;3.80;99.90;;;;;;5030691;28;20100;-73
2022/12/01 07:57:20;;;;;;;0.20;0.20;;;3.80;99.90;;;;;;5027603;28;20056;-73
2022/12/01 07:59:45;;;;;;;0.15;0.15;;;3.80;99.90;;;;;;5035459;28;20076;-73
2022/12/01 08:02:12;;;;;;;0.15;0.15;;;3.80;99.90;;;;;;5032080;28;20050;-74
2022/12/01 08:04:37;;;;;;;0.20;0.20;;;3.80;99.90;;;;;;5024698;28;20037;-73
2022/12/01 08:07:03;;;;;;;0.20;0.20;;;3.80;99.90;;;;;;5022353;28;20047;-74
2022/12/01 08:09:29;;;;;;;0.10;0.10;;;3.70;99.90;;;;;;5053114;28;20041;-74
2022/12/01 08:11:54;;;;;;;0.20;0.20;;;3.70;99.90;;;;;;5030650;28;20147;-73
2022/12/01 08:14:20;;;;;;;0.20;0.20;;;3.60;99.90;;;;;;5023110;28;20049;-74
2022/12/01 08:16:47;;;;;;;0.13;0.13;;;3.60;99.90;;;;;;5023717;28;21316;-74
2022/12/01 08:19:13;;;;;;;0.20;0.20;;;3.60;99.90;;;;;;5033558;28;20048;-73
2022/12/01 08:21:38;;;;;;;0.20;0.20;;;3.60;99.90;;;;;;5030132;28;20128;-73
2022/12/01 08:24:04;;;;;;;0.20;0.20;;;3.90;99.90;;;;;;5032277;28;20033;-74
2022/12/01 08:26:30;;;;;;;0.20;0.20;;;3.60;99.90;;;;;;5023874;28;20060;-73
2022/12/01 08:28:56;;;;;;;0.20;0.20;;;3.60;99.90;;;;;;5017940;28;20045;-74
2022/12/01 08:31:30;;;;;;;0.10;0.10;;;3.50;99.90;;;;;;5022745;28;20045;-74
2022/12/01 08:33:56;;;;;;;0.20;0.20;;;3.50;99.90;;;;;;5022812;28;20042;-74
2022/12/01 08:36:23;;;;;;;0.20;0.20;;;3.60;99.90;;;;;;5024164;28;20902;-74
2022/12/01 08:38:51;;;;;;;0.20;0.20;;;3.60;99.90;;;;;;5029409;28;20076;-74
2022/12/01 08:41:17;;;;;;;0.20;0.20;;;3.60;99.90;;;;;;5035245;28;20397;-78
2022/12/01 08:43:43;;;;;;;0.13;0.13;;;3.70;99.90;;;;;;5044620;28;20041;-74
2022/12/01 08:46:13;;;;;;;0.20;0.20;;;3.50;99.90;;;;;;5039287;28;20470;-74
2022/12/01 08:48:39;;;;;;;0.20;0.20;;;3.70;99.90;;;;;;5031687;28;20091;-75
2022/12/01 08:51:06;;;;;;;0.20;0.20;;;3.70;99.90;;;;;;5033974;28;20041;-74
2022/12/01 08:53:34;;;;;;;0.20;0.20;;;3.70;99.90;;;;;;5034761;28;20041;-74
2022/12/01 08:56:07;;;;;;;0.20;0.20;;;3.80;99.90;;;;;;5032269;28;20136;-74
2022/12/01 08:58:33;;;;;;;0.10;0.10;;;3.80;99.90;;;;;;5030733;28;20048;-74
2022/12/01 09:01:13;;;;;;;0.20;0.20;;;3.80;99.90;;;;;;5048266;28;20481;-73
2022/12/01 09:03:39;;;;;;;0.20;0.20;;;3.80;99.90;;;;;;5040555;28;20057;-74
2022/12/01 09:06:11;;;;;;;0.20;0.20;;;3.80;99.90;;;;;;5029016;28;20124;-74
2022/12/01 09:08:37;;;;;;;0.20;0.20;;;3.90;99.90;;;;;;5028827;28;20124;-74
2022/12/01 09:11:06;;;;;;;0.20;0.20;;;3.90;99.90;;;;;;5023317;28;20133;-73
2022/12/01 09:13:34;;;;;;;0.20;0.20;;;3.90;99.90;;;;;;5026754;28;20034;-73
2022/12/01 09:16:05;;;;;;;0.20;0.20;;;3.90;99.90;;;;;;5021162;28;20051;-74
2022/12/01 09:18:32;;;;;;;0.10;0.10;;;3.90;99.90;;;;;;5029544;28;20504;-74
2022/12/01 09:20:58;;;;;;;0.15;0.15;;;4.00;99.90;;;;;;5040428;28;20045;-73
2022/12/01 09:23:24;;;;;;;0.10;0.10;;;4.00;99.90;;;;;;5037702;28;20044;-74
2022/12/01 09:25:51;;;;;;;0.17;0.17;;;4.10;99.90;;;;;;5046298;28;20038;-74
2022/12/01 09:28:17;;;;;;;0.20;0.20;;;4.30;99.90;;;;;;5025238;28;20056;-74
2022/12/01 09:30:45;;;;;;;0.10;0.10;;;4.20;99.90;;;;;;5044669;28;20126;-74
2022/12/01 09:33:11;;;;;;;0.20;0.20;;;4.30;99.90;;;;;;5046684;28;20103;-74
2022/12/01 09:35:37;;;;;;;0.10;0.10;;;4.40;99.90;;;;;;5030789;28;20077;-74
2022/12/01 09:38:03;;;;;;;0.20;0.20;;;4.40;99.90;;;;;;5029444;28;20138;-73
2022/12/01 09:40:37;;;;;;;0.10;0.10;;;4.50;99.90;;;;;;5029520;28;20081;-74
2022/12/01 09:43:10;;;;;;;0.20;0.20;;;4.70;99.90;;;;;;5022818;28;20119;-74
2022/12/01 09:45:40;;;;;;;0.10;0.10;;;4.60;99.90;;;;;;5023991;28;20052;-73
2022/12/01 09:48:09;;;;;;;0.20;0.20;;;4.70;99.90;;;;;;5038588;28;20053;-74
2022/12/01 09:50:35;;;;;;;0.20;0.20;;;4.80;99.90;;;;;;5028751;28;20525;-74
2022/12/01 09:53:15;;;;;;;0.20;0.20;;;4.90;99.90;;;;;;5026556;28;20084;-73
2022/12/01 09:55:40;;;;;;;0.20;0.20;;;5.00;99.90;;;;;;5034636;28;20041;-73
2022/12/01 09:58:19;;;;;;;0.20;0.20;;;5.00;99.90;;;;;;5027922;28;20038;-74
2022/12/01 10:00:45;;;;;;;0.20;0.20;;;5.10;99.90;;;;;;5028728;28;20096;-73
2022/12/01 10:03:29;;;;;;;0.17;0.17;;;5.20;99.90;;;;;;5028779;28;20355;-72
2022/12/01 10:06:13;;;;;;;0.10;0.10;;;5.30;99.90;;;;;;5035766;28;20493;-73
2022/12/01 10:08:46;;;;;;;0.20;0.20;;;5.30;99.90;;;;;;5027776;28;20033;-74
2022/12/01 10:11:34;;;;;;;0.20;0.20;;;5.40;99.90;;;;;;5036593;28;20049;-73
2022/12/01 10:14:00;;;;;;;0.17;0.17;;;5.50;99.90;;;;;;5035729;28;20428;-74
2022/12/01 10:16:34;;;;;;;0.10;0.10;;;5.60;99.90;;;;;;5032326;28;20042;-74
2022/12/01 10:19:09;;;;;;;0.13;0.13;;;5.60;99.90;;;;;;5039135;28;20056;-76
2022/12/01 10:21:51;;;;;;;0.20;0.20;;;5.70;99.90;;;;;;5035546;28;20076;-74
2022/12/01 10:24:26;;;;;;;0.17;0.17;;;5.80;99.90;;;;;;5046300;28;20102;-75
2022/12/01 10:27:16;;;;;;;0.15;0.15;;;5.90;99.90;;;;;;5026552;28;20045;-74
2022/12/01 10:30:02;;;;;;;0.10;0.10;;;6.00;99.90;;;;;;5027921;28;20121;-74
2022/12/01 10:32:53;;;;;;;0.10;0.10;;;6.00;99.90;;;;;;5034009;28;20044;-74
2022/12/01 10:35:20;;;;;;;;;;;6.00;99.90;;;;;;5032423;28;20053;-74
2022/12/01 10:37:56;;;;;;;0.20;0.20;;;6.00;99.90;;;;;;5023076;28;20000;-74
2022/12/01 10:40:22;;;;;;;0.20;0.20;;;6.00;99.90;;;;;;5018391;28;20037;-74
2022/12/01 10:42:49;;;;;;;0.10;0.10;;;6.00;99.90;;;;;;5027637;28;20473;-75
2022/12/01 10:45:22;;;;;;;0.20;0.20;;;5.90;99.90;;;;;;5030497;28;20049;-74
2022/12/01 10:48:15;;;;;;;0.10;0.10;;;6.00;99.90;;;;;;5029705;28;20129;-74
2022/12/01 10:50:47;;;;;;;0.20;0.20;;;6.10;99.90;;;;;;5033553;28;20102;-74
2022/12/01 10:53:33;;;;;;;0.10;0.10;;;6.20;99.90;;;;;;5037641;28;20120;-74
2022/12/01 10:56:14;;;;;;;0.10;0.10;;;6.40;99.90;;;;;;5028727;28;20033;-73
2022/12/01 10:58:50;;;;;;;;;;;6.50;99.90;;;;;;5027602;28;20041;-74
2022/12/01 11:01:30;;;;;;;0.10;0.10;;;6.60;99.90;;;;;;5019713;28;19960;-75
2022/12/01 11:04:07;;;;;;;0.17;0.17;;;6.70;99.90;;;;;;5027687;28;20049;-73
2022/12/01 11:06:36;;;;;;;0.20;0.20;;;7.00;99.90;;;;;;5035781;28;20051;-73
2022/12/01 11:09:14;;;;;;;0.20;0.20;;;7.10;99.90;;;;;;5041454;28;20073;-73
2022/12/01 11:11:40;;;;;;;0.10;0.10;;;7.10;99.90;;;;;;5029215;28;20066;-75
2022/12/01 11:14:55;;;;;;;0.10;0.10;;;7.40;99.90;;;;;;5043822;28;20053;-73
2022/12/01 11:17:44;;;;;;;0.15;0.15;;;7.20;99.90;;;;;;5035693;28;20092;-74
2022/12/01 11:20:26;;;;;;;0.20;0.20;;;7.30;99.90;;;;;;5044958;28;20520;-73
2022/12/01 11:23:12;;;;;;;0.20;0.20;;;7.20;99.90;;;;;;5026986;28;20060;-74
2022/12/01 11:25:39;;;;;;;0.20;0.20;;;7.30;99.90;;;;;;5023697;28;20171;-74
2022/12/01 11:28:05;;;;;;;0.10;0.10;;;7.30;99.90;;;;;;5027790;28;20115;-74
2022/12/01 11:30:33;;;;;;;0.10;0.10;;;7.40;99.90;;;;;;5037183;28;20508;-73
2022/12/01 11:33:03;;;;;;;0.10;0.10;;;7.50;99.90;;;;;;5016930;28;20091;-74
2022/12/01 11:35:31;;;;;;;0.10;0.10;;;7.70;99.90;;;;;;5053015;28;20477;-73
2022/12/01 11:38:01;;;;;;;0.10;0.10;;;7.80;99.90;;;;;;5031764;28;20581;-74
2022/12/01 11:40:35;;;;;;;0.10;0.10;;;7.90;99.90;;;;;;5038075;28;20049;-73
2022/12/01 11:43:04;;;;;;;0.10;0.10;;;8.00;99.90;;;;;;5022388;28;20061;-73
2022/12/01 11:45:41;;;;;;;0.10;0.10;;;8.20;99.90;;;;;;5024467;28;20518;-74
2022/12/01 11:48:16;;;;;;;0.20;0.20;;;8.20;99.90;;;;;;5035182;28;20073;-74
2022/12/01 11:50:44;;;;;;;0.10;0.10;;;8.30;99.90;;;;;;5027604;28;20096;-75
2022/12/01 11:53:29;;;;;;;0.10;0.10;;;8.50;99.90;;;;;;5031192;28;20045;-73
2022/12/01 11:56:13;;;;;;;0.13;0.13;;;9.00;99.90;;;;;;5031928;28;20034;-73
2022/12/01 11:58:40;;;;;;;0.10;0.10;;;9.60;99.90;;;;;;5029946;28;20050;-73
2022/12/01 12:01:45;;;;;;;0.20;0.20;;;10.20;99.90;;;;;;5031141;28;20087;-74
2022/12/01 12:04:33;;;;;;;0.10;0.10;;;10.80;99.90;;;;;;5032298;28;20184;-73
2022/12/01 12:07:31;;;;;;;0.10;0.10;;;10.80;99.90;;;;;;5028246;28;20060;-73
2022/12/01 12:10:21;;;;;;;0.10;0.10;;;10.50;99.90;;;;;;5005217;28;20065;-74
2022/12/01 12:13:26;;;;;;;0.10;0.10;;;10.30;99.90;;;;;;5028500;28;20095;-74
2022/12/01 12:16:37;;;;;;;0.10;0.10;;;10.00;99.90;;;;;;5019899;28;20041;-73
2022/12/01 12:19:23;;;;;;;0.20;0.20;;;9.70;99.90;;;;;;4942427;28;20109;-73
2022/12/01 12:22:02;;;;;;;0.20;0.20;;;9.50;99.90;;;;;;4960458;28;20047;-73
2022/12/01 12:24:52;;;;;;;0.10;0.10;;;9.30;99.90;;;;;;5001749;28;20046;-74
2022/12/01 12:27:35;;;;;;;0.10;0.10;;;9.20;99.90;;;;;;5021524;28;20172;-73
2022/12/01 12:30:24;;;;;;;0.10;0.10;;;9.40;99.90;;;;;;5021857;28;20053;-73
2022/12/01 12:33:09;;;;;;;0.10;0.10;;;9.90;99.90;;;;;;5031417;28;20488;-73
2022/12/01 12:35:50;;;;;;;0.15;0.15;;;9.90;99.90;;;;;;5039392;28;20034;-74
2022/12/01 12:38:19;;;;;;;;;;;9.90;99.90;;;;;;5022326;28;20045;-73
2022/12/01 12:41:04;;;;;;;0.10;0.10;;;9.80;99.90;;;;;;5026495;28;19933;-73
2022/12/01 12:43:59;;;;;;;0.10;0.10;;;9.70;99.90;;;;;;5026787;28;20053;-73
2022/12/01 12:46:57;;;;;;;0.10;0.10;;;9.50;99.90;;;;;;4995192;28;20733;-72
2022/12/01 12:49:33;;;;;;;0.10;0.10;;;9.40;99.90;;;;;;5022393;28;20054;-73
2022/12/01 12:52:24;;;;;;;0.10;0.10;;;9.10;99.90;;;;;;5021688;28;20041;-73
2022/12/01 12:54:53;;;;;;;0.20;0.20;;;9.00;99.90;;;;;;5012905;28;20072;-74
2022/12/01 12:57:36;;;;;;;0.20;0.20;;;8.80;99.90;;;;;;5020677;28;20037;-73
2022/12/01 13:00:12;;;;;;;0.20;0.20;;;8.60;99.90;;;;;;5020778;28;20073;-73
2022/12/01 13:02:38;;;;;;;0.17;0.17;;;8.50;99.90;;;;;;5021921;28;20038;-73
2022/12/01 13:05:27;;;;;;;0.10;0.10;;;8.30;99.90;;;;;;5026614;28;20491;-73
2022/12/01 13:08:00;;;;;;;0.13;0.13;;;8.20;99.90;;;;;;5022712;28;20132;-73
2022/12/01 13:10:46;;;;;;;0.10;0.10;;;8.10;99.90;;;;;;5028661;28;20057;-73
2022/12/01 13:13:26;;;;;;;0.10;0.10;;;8.00;99.90;;;;;;5038699;28;20033;-73
2022/12/01 13:15:54;;;;;;;0.10;0.10;;;7.80;99.90;;;;;;5038684;28;20047;-74
2022/12/01 13:18:40;;;;;;;0.10;0.10;;;7.80;99.90;;;;;;5044596;28;20436;-73
2022/12/01 13:21:10;;;;;;;0.17;0.17;;;7.70;99.90;;;;;;5043824;28;20048;-73
2022/12/01 13:23:37;;;;;;;0.10;0.10;;;7.60;99.90;;;;;;5039106;28;20544;-75